sensor_id;sensor_type;location;lat;lon;timestamp;pressure;altitude;pressure_sealevel;temperature;humidity
36386;BME280;24125;47.482;8.770;2023-04-29T00:01:57;96066.91;;;17.64;82.30
36386;BME280;24125;47.482;8.770;2023-04-29T00:04:31;96064.19;;;17.64;82.38
36386;BME280;24125;47.482;8.770;2023-04-29T00:07:05;96052.66;;;17.64;81.99
36386;BME280;24125;47.482;8.770;2023-04-29T00:09:39;96056.50;;;17.63;81.80
36386;BME280;24125;47.482;8.770;2023-04-29T00:12:12;96047.97;;;17.61;82.04
36386;BME280;24125;47.482;8.770;2023-04-29T00:14:45;96058.75;;;17.61;81.92
36386;BME280;24125;47.482;8.770;2023-04-29T00:17:17;96057.97;;;17.60;81.92
36386;BME280;24125;47.482;8.770;2023-04-29T00:19:52;96056.00;;;17.57;81.88
36386;BME280;24125;47.482;8.770;2023-04-29T00:22:25;96053.31;;;17.57;81.69
36386;BME280;24125;47.482;8.770;2023-04-29T00:24:58;96064.88;;;17.58;82.23
36386;BME280;24125;47.482;8.770;2023-04-29T00:27:31;96053.31;;;17.57;82.09
36386;BME280;24125;47.482;8.770;2023-04-29T00:30:04;96051.41;;;17.58;82.38
36386;BME280;24125;47.482;8.770;2023-04-29T00:32:38;96046.41;;;17.60;82.51
36386;BME280;24125;47.482;8.770;2023-04-29T00:35:12;96047.56;;;17.59;82.32
36386;BME280;24125;47.482;8.770;2023-04-29T00:37:45;96043.72;;;17.60;82.28
36386;BME280;24125;47.482;8.770;2023-04-29T00:40:18;96044.84;;;17.59;82.23
36386;BME280;24125;47.482;8.770;2023-04-29T00:42:51;96051.81;;;17.60;82.04
36386;BME280;24125;47.482;8.770;2023-04-29T00:45:24;96045.63;;;17.59;82.08
36386;BME280;24125;47.482;8.770;2023-04-29T00:47:57;96055.28;;;17.60;82.11
36386;BME280;24125;47.482;8.770;2023-04-29T00:50:32;96052.16;;;17.58;81.83
36386;BME280;24125;47.482;8.770;2023-04-29T00:53:05;96047.13;;;17.57;81.82
36386;BME280;24125;47.482;8.770;2023-04-29T00:55:38;96057.94;;;17.57;81.84
36386;BME280;24125;47.482;8.770;2023-04-29T00:58:12;96060.63;;;17.57;81.77
36386;BME280;24125;47.482;8.770;2023-04-29T01:00:45;96052.53;;;17.57;81.91
36386;BME280;24125;47.482;8.770;2023-04-29T01:03:19;96042.13;;;17.55;82.00
36386;BME280;24125;47.482;8.770;2023-04-29T01:05:57;96042.13;;;17.55;82.10
36386;BME280;24125;47.482;8.770;2023-04-29T01:08:36;96043.28;;;17.54;82.04
36386;BME280;24125;47.482;8.770;2023-04-29T01:11:12;96048.69;;;17.54;82.22
36386;BME280;24125;47.482;8.770;2023-04-29T01:13:49;96049.06;;;17.56;82.13
36386;BME280;24125;47.482;8.770;2023-04-29T01:16:22;96048.69;;;17.54;82.32
36386;BME280;24125;47.482;8.770;2023-04-29T01:18:57;96048.69;;;17.54;82.33
36386;BME280;24125;47.482;8.770;2023-04-29T01:21:33;96051.38;;;17.54;82.35
36386;BME280;24125;47.482;8.770;2023-04-29T01:24:18;96042.53;;;17.57;82.26
36386;BME280;24125;47.482;8.770;2023-04-29T01:26:52;96046.38;;;17.56;82.45
36386;BME280;24125;47.482;8.770;2023-04-29T01:29:30;96035.56;;;17.56;82.50
36386;BME280;24125;47.482;8.770;2023-04-29T01:32:05;96040.97;;;17.56;82.20
36386;BME280;24125;47.482;8.770;2023-04-29T01:34:41;96036.34;;;17.57;82.27
36386;BME280;24125;47.482;8.770;2023-04-29T01:37:17;96038.66;;;17.55;82.13
36386;BME280;24125;47.482;8.770;2023-04-29T01:39:55;96048.69;;;17.58;82.19
36386;BME280;24125;47.482;8.770;2023-04-29T01:42:32;96046.38;;;17.56;82.04
36386;BME280;24125;47.482;8.770;2023-04-29T01:45:07;96052.53;;;17.57;82.39
36386;BME280;24125;47.482;8.770;2023-04-29T01:47:42;96049.47;;;17.58;82.31
36386;BME280;24125;47.482;8.770;2023-04-29T01:50:16;96061.81;;;17.59;82.35
36386;BME280;24125;47.482;8.770;2023-04-29T01:52:49;96050.66;;;17.61;82.59
36386;BME280;24125;47.482;8.770;2023-04-29T01:55:23;96050.31;;;17.62;82.51
36386;BME280;24125;47.482;8.770;2023-04-29T01:57:56;96049.56;;;17.65;82.55
36386;BME280;24125;47.482;8.770;2023-04-29T02:00:29;96052.25;;;17.65;82.58
36386;BME280;24125;47.482;8.770;2023-04-29T02:03:02;96045.34;;;17.68;82.36
36386;BME280;24125;47.482;8.770;2023-04-29T02:05:35;96055.38;;;17.67;82.21
36386;BME280;24125;47.482;8.770;2023-04-29T02:08:08;96054.63;;;17.70;82.15
36386;BME280;24125;47.482;8.770;2023-04-29T02:10:46;96058.47;;;17.69;82.22
36386;BME280;24125;47.482;8.770;2023-04-29T02:13:22;96049.59;;;17.69;82.09
36386;BME280;24125;47.482;8.770;2023-04-29T02:15:55;96051.53;;;17.68;81.95
36386;BME280;24125;47.482;8.770;2023-04-29T02:18:28;96059.63;;;17.68;81.77
36386;BME280;24125;47.482;8.770;2023-04-29T02:21:01;96053.81;;;17.66;81.71
36386;BME280;24125;47.482;8.770;2023-04-29T02:23:34;96048.00;;;17.64;81.69
36386;BME280;24125;47.482;8.770;2023-04-29T02:26:09;96043.78;;;17.63;81.57
36386;BME280;24125;47.482;8.770;2023-04-29T02:28:42;96046.84;;;17.62;81.96
36386;BME280;24125;47.482;8.770;2023-04-29T02:31:15;96040.63;;;17.61;81.74
36386;BME280;24125;47.482;8.770;2023-04-29T02:33:47;96034.47;;;17.61;81.78
36386;BME280;24125;47.482;8.770;2023-04-29T02:36:20;96035.25;;;17.61;82.00
36386;BME280;24125;47.482;8.770;2023-04-29T02:38:54;96037.94;;;17.61;82.04
36386;BME280;24125;47.482;8.770;2023-04-29T02:41:29;96033.69;;;17.60;81.95
36386;BME280;24125;47.482;8.770;2023-04-29T02:44:02;96029.84;;;17.61;82.09
36386;BME280;24125;47.482;8.770;2023-04-29T02:46:35;96030.22;;;17.60;81.98
36386;BME280;24125;47.482;8.770;2023-04-29T02:49:10;96037.94;;;17.61;82.00
36386;BME280;24125;47.482;8.770;2023-04-29T02:51:43;96038.31;;;17.60;81.78
36386;BME280;24125;47.482;8.770;2023-04-29T02:54:15;96035.25;;;17.61;81.93
36386;BME280;24125;47.482;8.770;2023-04-29T02:56:49;96032.91;;;17.60;82.00
36386;BME280;24125;47.482;8.770;2023-04-29T02:59:22;96034.47;;;17.61;81.91
36386;BME280;24125;47.482;8.770;2023-04-29T03:01:55;96041.44;;;17.62;81.88
36386;BME280;24125;47.482;8.770;2023-04-29T03:04:28;96037.16;;;17.61;82.00
36386;BME280;24125;47.482;8.770;2023-04-29T03:07:01;96042.22;;;17.62;81.74
36386;BME280;24125;47.482;8.770;2023-04-29T03:09:35;96051.09;;;17.63;82.01
36386;BME280;24125;47.482;8.770;2023-04-29T03:12:09;96048.41;;;17.63;81.79
36386;BME280;24125;47.482;8.770;2023-04-29T03:14:42;96044.91;;;17.62;81.71
36386;BME280;24125;47.482;8.770;2023-04-29T03:17:14;96046.47;;;17.63;81.58
36386;BME280;24125;47.482;8.770;2023-04-29T03:19:47;96044.56;;;17.64;81.81
36386;BME280;24125;47.482;8.770;2023-04-29T03:22:20;96044.16;;;17.62;81.54
36386;BME280;24125;47.482;8.770;2023-04-29T03:24:53;96043.34;;;17.61;81.76
36386;BME280;24125;47.482;8.770;2023-04-29T03:27:27;96034.91;;;17.63;81.62
36386;BME280;24125;47.482;8.770;2023-04-29T03:30:00;96028.28;;;17.60;81.33
36386;BME280;24125;47.482;8.770;2023-04-29T03:32:33;96030.97;;;17.60;81.28
36386;BME280;24125;47.482;8.770;2023-04-29T03:35:07;96030.94;;;17.57;81.05
36386;BME280;24125;47.482;8.770;2023-04-29T03:37:45;96036.75;;;17.55;80.89
36386;BME280;24125;47.482;8.770;2023-04-29T03:40:18;96039.41;;;17.52;80.61
36386;BME280;24125;47.482;8.770;2023-04-29T03:42:52;96028.56;;;17.48;80.56
36386;BME280;24125;47.482;8.770;2023-04-29T03:45:25;96030.47;;;17.44;80.75
36386;BME280;24125;47.482;8.770;2023-04-29T03:47:57;96013.47;;;17.40;80.63
36386;BME280;24125;47.482;8.770;2023-04-29T03:50:30;96014.22;;;17.37;80.66
36386;BME280;24125;47.482;8.770;2023-04-29T03:53:03;96013.03;;;17.34;80.75
36386;BME280;24125;47.482;8.770;2023-04-29T03:55:36;96021.09;;;17.31;80.51
36386;BME280;24125;47.482;8.770;2023-04-29T03:58:10;96019.94;;;17.28;80.52
36386;BME280;24125;47.482;8.770;2023-04-29T04:00:43;96024.91;;;17.26;80.58
36386;BME280;24125;47.482;8.770;2023-04-29T04:03:17;96014.06;;;17.23;80.60
36386;BME280;24125;47.482;8.770;2023-04-29T04:05:50;96015.63;;;17.20;80.57
36386;BME280;24125;47.482;8.770;2023-04-29T04:08:23;96010.59;;;17.19;80.59
36386;BME280;24125;47.482;8.770;2023-04-29T04:10:57;96023.25;;;17.15;80.58
36386;BME280;24125;47.482;8.770;2023-04-29T04:13:34;96019.75;;;17.11;80.38
36386;BME280;24125;47.482;8.770;2023-04-29T04:16:07;96018.97;;;17.10;80.53
36386;BME280;24125;47.482;8.770;2023-04-29T04:18:41;96020.84;;;17.06;80.44
36386;BME280;24125;47.482;8.770;2023-04-29T04:21:13;96017.00;;;17.04;80.60
36386;BME280;24125;47.482;8.770;2023-04-29T04:23:46;96026.59;;;17.01;80.35
36386;BME280;24125;47.482;8.770;2023-04-29T04:26:19;96028.09;;;16.98;80.53
36386;BME280;24125;47.482;8.770;2023-04-29T04:28:54;96038.09;;;16.94;80.54
36386;BME280;24125;47.482;8.770;2023-04-29T04:31:27;96044.97;;;16.92;80.07
36386;BME280;24125;47.482;8.770;2023-04-29T04:34:00;96053.03;;;16.88;80.33
36386;BME280;24125;47.482;8.770;2023-04-29T04:36:33;96060.34;;;16.88;80.62
36386;BME280;24125;47.482;8.770;2023-04-29T04:39:06;96062.66;;;16.86;80.75
36386;BME280;24125;47.482;8.770;2023-04-29T04:41:38;96064.56;;;16.85;81.21
36386;BME280;24125;47.482;8.770;2023-04-29T04:44:13;96066.13;;;16.86;81.17
36386;BME280;24125;47.482;8.770;2023-04-29T04:46:45;96066.88;;;16.87;81.39
36386;BME280;24125;47.482;8.770;2023-04-29T04:49:18;96073.44;;;16.89;81.70
36386;BME280;24125;47.482;8.770;2023-04-29T04:51:51;96075.00;;;16.90;81.77
36386;BME280;24125;47.482;8.770;2023-04-29T04:54:24;96074.28;;;16.93;81.72
36386;BME280;24125;47.482;8.770;2023-04-29T04:56:57;96076.63;;;16.95;82.03
36386;BME280;24125;47.482;8.770;2023-04-29T04:59:31;96079.34;;;16.98;81.93
36386;BME280;24125;47.482;8.770;2023-04-29T05:02:04;96080.53;;;17.01;81.75
36386;BME280;24125;47.482;8.770;2023-04-29T05:04:39;96080.16;;;17.03;81.89
36386;BME280;24125;47.482;8.770;2023-04-29T05:07:12;96080.97;;;17.07;81.71
36386;BME280;24125;47.482;8.770;2023-04-29T05:09:45;96083.66;;;17.07;82.03
36386;BME280;24125;47.482;8.770;2023-04-29T05:12:17;96076.75;;;17.09;81.81
36386;BME280;24125;47.482;8.770;2023-04-29T05:14:53;96087.22;;;17.14;81.96
36386;BME280;24125;47.482;8.770;2023-04-29T05:17:26;96078.03;;;17.19;82.51
36386;BME280;24125;47.482;8.770;2023-04-29T05:19:58;96084.25;;;17.26;83.20
36386;BME280;24125;47.482;8.770;2023-04-29T05:22:31;96082.84;;;17.40;84.04
36386;BME280;24125;47.482;8.770;2023-04-29T05:25:04;96084.16;;;17.56;85.39
36386;BME280;24125;47.482;8.770;2023-04-29T05:27:37;96091.34;;;17.79;86.34
36386;BME280;24125;47.482;8.770;2023-04-29T05:30:12;96093.88;;;18.08;87.67
36386;BME280;24125;47.482;8.770;2023-04-29T05:32:46;96091.78;;;18.42;88.63
36386;BME280;24125;47.482;8.770;2023-04-29T05:35:19;96101.25;;;18.77;89.03
36386;BME280;24125;47.482;8.770;2023-04-29T05:37:52;96101.38;;;19.12;88.74
36386;BME280;24125;47.482;8.770;2023-04-29T05:40:25;96106.13;;;19.44;87.78
36386;BME280;24125;47.482;8.770;2023-04-29T05:42:57;96106.19;;;19.69;86.48
36386;BME280;24125;47.482;8.770;2023-04-29T05:45:31;96108.53;;;19.91;85.75
36386;BME280;24125;47.482;8.770;2023-04-29T05:48:05;96112.00;;;20.10;85.14
36386;BME280;24125;47.482;8.770;2023-04-29T05:50:38;96108.91;;;20.29;85.12
36386;BME280;24125;47.482;8.770;2023-04-29T05:53:11;96108.91;;;20.47;84.90
36386;BME280;24125;47.482;8.770;2023-04-29T05:55:44;96113.91;;;20.66;84.91
36386;BME280;24125;47.482;8.770;2023-04-29T05:58:19;96115.38;;;20.85;84.89
36386;BME280;24125;47.482;8.770;2023-04-29T06:00:53;96119.97;;;21.05;84.61
36386;BME280;24125;47.482;8.770;2023-04-29T06:03:28;96121.09;;;21.26;84.33
36386;BME280;24125;47.482;8.770;2023-04-29T06:06:01;96128.38;;;21.43;83.98
36386;BME280;24125;47.482;8.770;2023-04-29T06:08:35;96127.88;;;21.59;82.92
36386;BME280;24125;47.482;8.770;2023-04-29T06:11:07;96132.09;;;21.70;82.36
36386;BME280;24125;47.482;8.770;2023-04-29T06:13:40;96118.06;;;21.79;81.73
36386;BME280;24125;47.482;8.770;2023-04-29T06:16:15;96117.22;;;21.86;81.58
36386;BME280;24125;47.482;8.770;2023-04-29T06:18:47;96119.50;;;21.91;81.09
36386;BME280;24125;47.482;8.770;2023-04-29T06:21:20;96121.81;;;21.96;80.74
36386;BME280;24125;47.482;8.770;2023-04-29T06:23:53;96127.25;;;21.99;80.56
36386;BME280;24125;47.482;8.770;2023-04-29T06:26:26;96137.72;;;22.01;80.12
36386;BME280;24125;47.482;8.770;2023-04-29T06:28:59;96124.53;;;21.99;80.03
36386;BME280;24125;47.482;8.770;2023-04-29T06:31:35;96135.78;;;21.98;79.46
36386;BME280;24125;47.482;8.770;2023-04-29T06:34:08;96132.69;;;21.92;79.46
36386;BME280;24125;47.482;8.770;2023-04-29T06:36:41;96130.41;;;21.87;78.43
36386;BME280;24125;47.482;8.770;2023-04-29T06:39:14;96130.81;;;21.82;78.40
36386;BME280;24125;47.482;8.770;2023-04-29T06:41:47;96123.91;;;21.74;78.11
36386;BME280;24125;47.482;8.770;2023-04-29T06:44:20;96132.88;;;21.67;78.56
36386;BME280;24125;47.482;8.770;2023-04-29T06:46:54;96135.63;;;21.60;78.31
36386;BME280;24125;47.482;8.770;2023-04-29T06:49:27;96132.53;;;21.55;79.13
36386;BME280;24125;47.482;8.770;2023-04-29T06:52:00;96132.19;;;21.49;79.29
36386;BME280;24125;47.482;8.770;2023-04-29T06:54:33;96139.56;;;21.49;80.10
36386;BME280;24125;47.482;8.770;2023-04-29T06:57:06;96138.81;;;21.48;80.33
36386;BME280;24125;47.482;8.770;2023-04-29T06:59:38;96138.41;;;21.50;80.53
36386;BME280;24125;47.482;8.770;2023-04-29T07:02:13;96139.56;;;21.52;81.14
36386;BME280;24125;47.482;8.770;2023-04-29T07:04:46;96131.75;;;21.58;81.54
36386;BME280;24125;47.482;8.770;2023-04-29T07:07:20;96135.59;;;21.67;82.59
36386;BME280;24125;47.482;8.770;2023-04-29T07:09:53;96134.38;;;21.79;83.13
36386;BME280;24125;47.482;8.770;2023-04-29T07:12:26;96142.03;;;21.91;83.71
36386;BME280;24125;47.482;8.770;2023-04-29T07:14:59;96134.22;;;22.04;83.55
36386;BME280;24125;47.482;8.770;2023-04-29T07:17:34;96130.22;;;22.15;83.64
36386;BME280;24125;47.482;8.770;2023-04-29T07:20:07;96144.09;;;22.28;83.20
36386;BME280;24125;47.482;8.770;2023-04-29T07:22:40;96135.09;;;22.38;82.99
36386;BME280;24125;47.482;8.770;2023-04-29T07:25:13;96141.59;;;22.48;82.64
36386;BME280;24125;47.482;8.770;2023-04-29T07:27:46;96134.91;;;22.56;82.39
36386;BME280;24125;47.482;8.770;2023-04-29T07:30:19;96139.50;;;22.63;81.52
36386;BME280;24125;47.482;8.770;2023-04-29T07:32:53;96135.56;;;22.67;82.53
36386;BME280;24125;47.482;8.770;2023-04-29T07:35:26;96145.63;;;22.74;81.79
36386;BME280;24125;47.482;8.770;2023-04-29T07:37:59;96150.28;;;22.77;81.77
36386;BME280;24125;47.482;8.770;2023-04-29T07:40:31;96145.19;;;22.82;81.49
36386;BME280;24125;47.482;8.770;2023-04-29T07:43:04;96143.56;;;22.85;81.96
36386;BME280;24125;47.482;8.770;2023-04-29T07:45:39;96154.44;;;22.88;81.54
36386;BME280;24125;47.482;8.770;2023-04-29T07:48:13;96153.22;;;22.93;82.88
36386;BME280;24125;47.482;8.770;2023-04-29T07:50:46;96158.63;;;22.97;82.03
36386;BME280;24125;47.482;8.770;2023-04-29T07:53:18;96158.59;;;23.00;81.68
36386;BME280;24125;47.482;8.770;2023-04-29T07:55:52;96162.81;;;23.05;81.38
36386;BME280;24125;47.482;8.770;2023-04-29T07:58:25;96163.50;;;23.12;82.17
36386;BME280;24125;47.482;8.770;2023-04-29T08:01:03;96150.97;;;23.18;81.90
36386;BME280;24125;47.482;8.770;2023-04-29T08:03:38;96148.97;;;23.26;81.86
36386;BME280;24125;47.482;8.770;2023-04-29T08:06:12;96153.13;;;23.34;81.99
36386;BME280;24125;47.482;8.770;2023-04-29T08:08:45;96149.47;;;23.44;81.60
36386;BME280;24125;47.482;8.770;2023-04-29T08:11:18;96161.03;;;23.55;80.05
36386;BME280;24125;47.482;8.770;2023-04-29T08:13:51;96154.31;;;23.63;78.74
36386;BME280;24125;47.482;8.770;2023-04-29T08:16:24;96163.16;;;23.71;78.80
36386;BME280;24125;47.482;8.770;2023-04-29T08:18:58;96161.22;;;23.72;78.06
36386;BME280;24125;47.482;8.770;2023-04-29T08:21:31;96157.31;;;23.73;78.16
36386;BME280;24125;47.482;8.770;2023-04-29T08:24:05;96157.31;;;23.73;78.89
36386;BME280;24125;47.482;8.770;2023-04-29T08:26:38;96158.09;;;23.73;78.11
36386;BME280;24125;47.482;8.770;2023-04-29T08:29:11;96156.50;;;23.76;79.61
36386;BME280;24125;47.482;8.770;2023-04-29T08:31:44;96165.03;;;23.78;78.78
36386;BME280;24125;47.482;8.770;2023-04-29T08:34:18;96161.84;;;23.83;79.19
36386;BME280;24125;47.482;8.770;2023-04-29T08:36:51;96161.03;;;23.86;78.39
36386;BME280;24125;47.482;8.770;2023-04-29T08:39:24;96160.59;;;23.87;77.98
36386;BME280;24125;47.482;8.770;2023-04-29T08:41:57;96154.81;;;23.85;77.10
36386;BME280;24125;47.482;8.770;2023-04-29T08:44:30;96160.66;;;23.84;77.59
36386;BME280;24125;47.482;8.770;2023-04-29T08:47:04;96154.47;;;23.80;77.00
36386;BME280;24125;47.482;8.770;2023-04-29T08:49:39;96157.69;;;23.75;76.92
36386;BME280;24125;47.482;8.770;2023-04-29T08:52:12;96159.31;;;23.68;77.17
36386;BME280;24125;47.482;8.770;2023-04-29T08:54:45;96151.19;;;23.65;76.11
36386;BME280;24125;47.482;8.770;2023-04-29T08:57:17;96143.78;;;23.65;77.50
36386;BME280;24125;47.482;8.770;2023-04-29T08:59:50;96150.72;;;23.70;79.60
36386;BME280;24125;47.482;8.770;2023-04-29T09:02:23;96146.28;;;23.80;78.74
36386;BME280;24125;47.482;8.770;2023-04-29T09:04:59;96152.38;;;23.91;79.29
36386;BME280;24125;47.482;8.770;2023-04-29T09:07:36;96153.41;;;24.00;79.93
36386;BME280;24125;47.482;8.770;2023-04-29T09:10:09;96154.47;;;24.06;79.01
36386;BME280;24125;47.482;8.770;2023-04-29T09:12:42;96150.94;;;24.10;77.57
36386;BME280;24125;47.482;8.770;2023-04-29T09:15:16;96148.19;;;24.10;78.59
36386;BME280;24125;47.482;8.770;2023-04-29T09:17:49;96154.84;;;24.08;77.34
36386;BME280;24125;47.482;8.770;2023-04-29T09:20:27;96142.38;;;24.07;77.63
36386;BME280;24125;47.482;8.770;2023-04-29T09:23:00;96146.69;;;24.05;78.08
36386;BME280;24125;47.482;8.770;2023-04-29T09:25:33;96148.66;;;24.04;76.87
36386;BME280;24125;47.482;8.770;2023-04-29T09:28:13;96151.38;;;24.04;74.44
36386;BME280;24125;47.482;8.770;2023-04-29T09:30:46;96145.50;;;24.06;76.74
36386;BME280;24125;47.482;8.770;2023-04-29T09:33:20;96152.88;;;24.09;79.54
36386;BME280;24125;47.482;8.770;2023-04-29T09:35:55;96140.72;;;24.14;78.76
36386;BME280;24125;47.482;8.770;2023-04-29T09:38:27;96144.94;;;24.18;78.82
36386;BME280;24125;47.482;8.770;2023-04-29T09:41:00;96139.41;;;24.25;79.83
36386;BME280;24125;47.482;8.770;2023-04-29T09:43:42;96145.47;;;24.36;80.67
36386;BME280;24125;47.482;8.770;2023-04-29T09:46:15;96140.25;;;24.46;78.90
36386;BME280;24125;47.482;8.770;2023-04-29T09:48:48;96136.88;;;24.58;79.55
36386;BME280;24125;47.482;8.770;2023-04-29T09:51:22;96141.81;;;24.66;78.84
36386;BME280;24125;47.482;8.770;2023-04-29T09:53:55;96136.25;;;24.73;77.46
36386;BME280;24125;47.482;8.770;2023-04-29T09:56:28;96136.88;;;24.81;77.31
36386;BME280;24125;47.482;8.770;2023-04-29T09:59:06;96130.09;;;24.89;77.76
36386;BME280;24125;47.482;8.770;2023-04-29T10:01:39;96127.66;;;24.95;74.23
36386;BME280;24125;47.482;8.770;2023-04-29T10:04:12;96140.06;;;24.99;74.99
36386;BME280;24125;47.482;8.770;2023-04-29T10:06:49;96132.97;;;25.02;75.70
36386;BME280;24125;47.482;8.770;2023-04-29T10:09:22;96124.78;;;25.02;74.25
36386;BME280;24125;47.482;8.770;2023-04-29T10:11:55;96123.59;;;25.03;75.59
36386;BME280;24125;47.482;8.770;2023-04-29T10:14:28;96109.09;;;25.06;72.92
36386;BME280;24125;47.482;8.770;2023-04-29T10:17:06;96113.72;;;25.09;76.27
36386;BME280;24125;47.482;8.770;2023-04-29T10:19:43;96118.34;;;25.12;77.51
36386;BME280;24125;47.482;8.770;2023-04-29T10:22:25;96122.13;;;25.18;78.08
36386;BME280;24125;47.482;8.770;2023-04-29T10:24:58;96116.22;;;25.19;77.68
36386;BME280;24125;47.482;8.770;2023-04-29T10:27:32;96113.44;;;25.23;78.01
36386;BME280;24125;47.482;8.770;2023-04-29T10:30:06;96105.59;;;25.25;77.31
36386;BME280;24125;47.482;8.770;2023-04-29T10:32:40;96113.34;;;25.27;78.16
36386;BME280;24125;47.482;8.770;2023-04-29T10:35:21;96106.69;;;25.28;78.28
36386;BME280;24125;47.482;8.770;2023-04-29T10:37:56;96102.78;;;25.29;77.29
36386;BME280;24125;47.482;8.770;2023-04-29T10:40:35;96092.19;;;25.31;77.25
36386;BME280;24125;47.482;8.770;2023-04-29T10:43:14;96095.28;;;25.33;73.95
36386;BME280;24125;47.482;8.770;2023-04-29T10:45:47;96080.84;;;25.32;74.25
36386;BME280;24125;47.482;8.770;2023-04-29T10:48:19;96090.16;;;25.35;74.89
36386;BME280;24125;47.482;8.770;2023-04-29T10:51:01;96085.03;;;25.37;74.57
36386;BME280;24125;47.482;8.770;2023-04-29T10:53:36;96076.41;;;25.38;73.33
36386;BME280;24125;47.482;8.770;2023-04-29T10:56:34;96078.31;;;25.41;74.00
36386;BME280;24125;47.482;8.770;2023-04-29T10:59:14;96074.72;;;25.44;73.60
36386;BME280;24125;47.482;8.770;2023-04-29T11:01:48;96074.22;;;25.49;75.44
36386;BME280;24125;47.482;8.770;2023-04-29T11:04:21;96072.94;;;25.54;76.47
36386;BME280;24125;47.482;8.770;2023-04-29T11:06:54;96072.47;;;25.59;73.28
36386;BME280;24125;47.482;8.770;2023-04-29T11:09:30;96071.13;;;25.67;77.47
36386;BME280;24125;47.482;8.770;2023-04-29T11:12:04;96070.19;;;25.74;75.69
36386;BME280;24125;47.482;8.770;2023-04-29T11:14:42;96059.06;;;25.81;78.13
36386;BME280;24125;47.482;8.770;2023-04-29T11:17:16;96069.47;;;25.86;73.08
36386;BME280;24125;47.482;8.770;2023-04-29T11:19:50;96061.22;;;25.89;73.70
36386;BME280;24125;47.482;8.770;2023-04-29T11:22:24;96063.88;;;25.93;74.96
36386;BME280;24125;47.482;8.770;2023-04-29T11:24:59;96063.75;;;25.97;76.25
36386;BME280;24125;47.482;8.770;2023-04-29T11:27:32;96065.66;;;26.00;73.46
36386;BME280;24125;47.482;8.770;2023-04-29T11:30:06;96061.63;;;26.04;74.37
36386;BME280;24125;47.482;8.770;2023-04-29T11:32:39;96058.81;;;26.08;75.46
36386;BME280;24125;47.482;8.770;2023-04-29T11:35:13;96057.97;;;26.11;75.47
36386;BME280;24125;47.482;8.770;2023-04-29T11:37:47;96064.53;;;26.13;76.53
36386;BME280;24125;47.482;8.770;2023-04-29T11:40:21;96059.41;;;26.15;75.50
36386;BME280;24125;47.482;8.770;2023-04-29T11:42:54;96054.63;;;26.19;76.76
36386;BME280;24125;47.482;8.770;2023-04-29T11:45:26;96060.31;;;26.25;78.46
36386;BME280;24125;47.482;8.770;2023-04-29T11:47:59;96054.69;;;26.32;76.85
36386;BME280;24125;47.482;8.770;2023-04-29T11:50:32;96058.34;;;26.42;78.76
36386;BME280;24125;47.482;8.770;2023-04-29T11:53:06;96059.94;;;26.55;79.15
36386;BME280;24125;47.482;8.770;2023-04-29T11:55:42;96053.75;;;26.67;80.40
36386;BME280;24125;47.482;8.770;2023-04-29T11:58:15;96054.13;;;26.82;80.33
36386;BME280;24125;47.482;8.770;2023-04-29T12:00:49;96051.44;;;26.95;77.35
36386;BME280;24125;47.482;8.770;2023-04-29T12:03:22;96053.78;;;27.09;81.51
36386;BME280;24125;47.482;8.770;2023-04-29T12:05:55;96049.97;;;27.19;80.49
36386;BME280;24125;47.482;8.770;2023-04-29T12:08:29;96050.50;;;27.27;79.81
36386;BME280;24125;47.482;8.770;2023-04-29T12:11:06;96050.75;;;27.32;79.51
36386;BME280;24125;47.482;8.770;2023-04-29T12:13:39;96044.38;;;27.35;79.45
36386;BME280;24125;47.482;8.770;2023-04-29T12:16:12;96047.88;;;27.36;78.71
36386;BME280;24125;47.482;8.770;2023-04-29T12:18:45;96047.13;;;27.35;79.08
36386;BME280;24125;47.482;8.770;2023-04-29T12:21:18;96044.38;;;27.35;79.03
36386;BME280;24125;47.482;8.770;2023-04-29T12:23:51;96039.31;;;27.34;78.53
36386;BME280;24125;47.482;8.770;2023-04-29T12:26:27;96039.44;;;27.30;75.97
36386;BME280;24125;47.482;8.770;2023-04-29T12:29:00;96037.25;;;27.25;76.80
36386;BME280;24125;47.482;8.770;2023-04-29T12:31:33;96039.00;;;27.19;76.48
36386;BME280;24125;47.482;8.770;2023-04-29T12:34:06;96040.41;;;27.11;75.88
36386;BME280;24125;47.482;8.770;2023-04-29T12:36:40;96039.09;;;27.03;77.15
36386;BME280;24125;47.482;8.770;2023-04-29T12:39:13;96045.53;;;26.96;76.16
36386;BME280;24125;47.482;8.770;2023-04-29T12:41:48;96032.78;;;26.90;76.63
36386;BME280;24125;47.482;8.770;2023-04-29T12:44:21;96029.03;;;26.84;76.99
36386;BME280;24125;47.482;8.770;2023-04-29T12:46:53;96033.84;;;26.80;77.02
36386;BME280;24125;47.482;8.770;2023-04-29T12:49:28;96032.84;;;26.74;75.69
36386;BME280;24125;47.482;8.770;2023-04-29T12:52:02;96042.38;;;26.69;76.60
36386;BME280;24125;47.482;8.770;2023-04-29T12:54:35;96032.69;;;26.64;73.36
36386;BME280;24125;47.482;8.770;2023-04-29T12:57:10;96036.31;;;26.61;74.37
36386;BME280;24125;47.482;8.770;2023-04-29T12:59:42;96030.50;;;26.59;76.93
36386;BME280;24125;47.482;8.770;2023-04-29T13:02:15;96030.94;;;26.58;75.37
36386;BME280;24125;47.482;8.770;2023-04-29T13:04:48;96032.47;;;26.59;77.75
36386;BME280;24125;47.482;8.770;2023-04-29T13:07:21;96021.44;;;26.62;72.38
36386;BME280;24125;47.482;8.770;2023-04-29T13:09:54;96032.94;;;26.70;79.01
36386;BME280;24125;47.482;8.770;2023-04-29T13:12:29;96039.00;;;26.78;77.84
36386;BME280;24125;47.482;8.770;2023-04-29T13:15:01;96036.41;;;26.87;79.11
36386;BME280;24125;47.482;8.770;2023-04-29T13:17:34;96031.94;;;26.93;76.94
36386;BME280;24125;47.482;8.770;2023-04-29T13:20:08;96023.94;;;26.98;74.69
36386;BME280;24125;47.482;8.770;2023-04-29T13:22:42;96028.56;;;27.01;73.88
36386;BME280;24125;47.482;8.770;2023-04-29T13:25:15;96023.06;;;27.01;72.11
36386;BME280;24125;47.482;8.770;2023-04-29T13:27:49;96016.81;;;27.01;73.92
36386;BME280;24125;47.482;8.770;2023-04-29T13:30:21;96010.56;;;27.00;75.12
36386;BME280;24125;47.482;8.770;2023-04-29T13:32:54;96008.94;;;27.03;78.97
36386;BME280;24125;47.482;8.770;2023-04-29T13:35:38;96007.31;;;27.06;78.92